Time;durP1;ratioP1;P1;durP2;ratioP2;P2;SDS_P1;SDS_P2;PMS_P1;PMS_P2;Temp;Humidity;BMP_temperature;BMP_pressure;BME280_temperature;BME280_humidity;BME280_pressure;Samples;Min_cycle;Max_cycle;Signal;HPM_P1;HPM_P2
2021/05/30 00:02:13;;;;;;;4.00;3.70;;;11.10;1.00;;;;;;5073241;28;20437;-79
2021/05/30 00:04:40;;;;;;;3.73;3.43;;;11.10;1.00;;;;;;5069742;28;20216;-80
2021/05/30 00:07:07;;;;;;;5.00;4.03;;;11.10;1.00;;;;;;5070741;28;20561;-79
2021/05/30 00:09:34;;;;;;;5.65;3.72;;;11.00;1.00;;;;;;5069404;28;20461;-78
2021/05/30 00:12:01;;;;;;;4.82;4.35;;;11.00;1.00;;;;;;5071514;28;20220;-78
2021/05/30 00:14:27;;;;;;;4.20;3.80;;;11.00;1.00;;;;;;5070465;28;20269;-78
2021/05/30 00:16:54;;;;;;;4.53;4.00;;;10.90;1.00;;;;;;5056679;28;20619;-80
2021/05/30 00:19:20;;;;;;;7.70;3.90;;;10.80;1.00;;;;;;5074245;28;20549;-79
2021/05/30 00:21:46;;;;;;;7.13;4.30;;;10.80;1.00;;;;;;5076938;28;20435;-79
2021/05/30 00:24:13;;;;;;;6.00;4.60;;;10.70;1.00;;;;;;5075884;28;20476;-80
2021/05/30 00:26:39;;;;;;;5.27;4.57;;;10.70;1.00;;;;;;5068942;28;20526;-79
2021/05/30 00:29:05;;;;;;;4.30;3.90;;;10.70;1.00;;;;;;5071693;28;20466;-79
2021/05/30 00:31:32;;;;;;;5.10;4.60;;;10.70;1.00;;;;;;5069311;28;20234;-79
2021/05/30 00:33:59;;;;;;;5.65;4.88;;;10.70;1.00;;;;;;5072108;28;20278;-79
2021/05/30 00:36:25;;;;;;;4.87;4.47;;;10.70;1.00;;;;;;5068979;28;20310;-79
2021/05/30 00:38:52;;;;;;;6.15;5.38;;;10.60;1.00;;;;;;5072848;28;20463;-79
2021/05/30 00:41:18;;;;;;;4.78;4.18;;;10.60;1.00;;;;;;5065286;28;21082;-79
2021/05/30 00:43:45;;;;;;;5.88;5.13;;;10.60;1.00;;;;;;5071225;28;20225;-80
2021/05/30 00:46:12;;;;;;;5.13;4.60;;;10.60;1.00;;;;;;5070551;28;20228;-79
2021/05/30 00:48:38;;;;;;;4.22;3.90;;;10.50;1.00;;;;;;5073254;28;20571;-79
2021/05/30 00:51:06;;;;;;;5.00;4.55;;;10.50;1.00;;;;;;5071479;28;20295;-79
2021/05/30 00:53:34;;;;;;;6.03;5.43;;;10.40;1.00;;;;;;5067615;28;20734;-78
2021/05/30 00:56:03;;;;;;;5.32;4.82;;;10.40;1.00;;;;;;5076193;28;21270;-79
2021/05/30 00:58:30;;;;;;;5.65;5.05;;;10.40;1.00;;;;;;5072172;28;20230;-78
2021/05/30 01:00:56;;;;;;;5.40;5.00;;;10.30;1.00;;;;;;5076640;27;20332;-78
2021/05/30 01:03:22;;;;;;;5.40;4.97;;;10.30;1.00;;;;;;5077847;27;20424;-77
2021/05/30 01:05:48;;;;;;;7.22;5.30;;;10.30;1.00;;;;;;5092775;28;20405;-78
2021/05/30 01:08:15;;;;;;;5.77;5.17;;;10.20;1.00;;;;;;5094722;28;20235;-78
2021/05/30 01:10:45;;;;;;;5.43;5.03;;;10.20;1.00;;;;;;5092638;28;20784;-79
2021/05/30 01:13:12;;;;;;;5.85;5.45;;;10.20;1.00;;;;;;5079745;28;20229;-78
2021/05/30 01:15:39;;;;;;;5.72;5.22;;;10.10;1.00;;;;;;5073510;28;20327;-79
2021/05/30 01:18:05;;;;;;;7.18;5.50;;;10.10;1.00;;;;;;5071087;28;20225;-79
2021/05/30 01:20:32;;;;;;;6.13;5.55;;;10.10;1.00;;;;;;5077807;28;20332;-79
2021/05/30 01:23:05;;;;;;;5.65;5.15;;;10.00;1.00;;;;;;5073833;28;20232;-79
2021/05/30 01:25:31;;;;;;;6.18;5.65;;;10.00;1.00;;;;;;5083997;28;20213;-79
2021/05/30 01:27:57;;;;;;;6.03;5.45;;;10.00;1.00;;;;;;5078735;28;20361;-78
2021/05/30 01:30:24;;;;;;;6.30;5.55;;;10.00;1.00;;;;;;5099305;28;20246;-77
2021/05/30 01:32:51;;;;;;;8.25;5.50;;;9.90;1.00;;;;;;5098052;28;20310;-78
2021/05/30 01:35:19;;;;;;;6.60;6.00;;;9.90;1.00;;;;;;5094413;27;23412;-77
2021/05/30 01:37:46;;;;;;;6.38;5.78;;;9.90;1.00;;;;;;5089206;28;20427;-79
2021/05/30 01:40:14;;;;;;;6.50;5.47;;;9.90;1.00;;;;;;5091890;28;20271;-79
2021/05/30 01:42:40;;;;;;;7.28;6.10;;;9.80;1.00;;;;;;5077219;28;20280;-79
2021/05/30 01:45:07;;;;;;;6.70;6.07;;;9.80;1.00;;;;;;5076603;28;21001;-80
2021/05/30 01:47:36;;;;;;;6.60;5.72;;;9.70;1.00;;;;;;5072477;28;20223;-79
2021/05/30 01:50:07;;;;;;;7.20;6.15;;;9.70;1.00;;;;;;5074263;28;20224;-79
2021/05/30 01:52:33;;;;;;;7.55;6.75;;;9.70;1.00;;;;;;5084830;27;20270;-79
2021/05/30 01:55:01;;;;;;;7.30;6.28;;;9.70;1.00;;;;;;5073111;28;20309;-79
2021/05/30 01:57:28;;;;;;;6.88;5.63;;;9.70;1.00;;;;;;5070158;28;20256;-79
2021/05/30 01:59:55;;;;;;;7.25;5.88;;;9.60;1.00;;;;;;5073855;28;20231;-80
2021/05/30 02:02:24;;;;;;;7.60;6.05;;;9.60;1.00;;;;;;5069299;28;20236;-79
2021/05/30 02:04:53;;;;;;;7.15;6.45;;;9.60;1.00;;;;;;5076857;28;20916;-79
2021/05/30 02:07:20;;;;;;;8.73;6.97;;;9.50;1.00;;;;;;5074095;28;21417;-78
2021/05/30 02:09:46;;;;;;;7.32;6.30;;;9.50;1.00;;;;;;5066499;28;20246;-79
2021/05/30 02:12:15;;;;;;;8.32;6.65;;;9.50;1.00;;;;;;5071461;28;20260;-79
2021/05/30 02:14:42;;;;;;;6.80;6.20;;;9.50;1.00;;;;;;5070820;28;20221;-78
2021/05/30 02:17:08;;;;;;;7.78;6.47;;;9.50;1.00;;;;;;5080303;28;20225;-79
2021/05/30 02:19:34;;;;;;;8.25;6.72;;;9.40;1.00;;;;;;5070198;28;20229;-79
2021/05/30 02:22:00;;;;;;;8.13;6.32;;;9.40;1.00;;;;;;5067452;28;24776;-79
2021/05/30 02:24:27;;;;;;;8.65;6.63;;;9.40;1.00;;;;;;5075464;28;20339;-77
2021/05/30 02:26:53;;;;;;;8.15;6.20;;;9.40;1.00;;;;;;5068492;28;22197;-78
2021/05/30 02:29:29;;;;;;;6.20;5.60;;;9.40;1.00;;;;;;5072726;28;20271;-79
2021/05/30 02:31:56;;;;;;;6.88;6.18;;;9.40;1.00;;;;;;5070903;28;20225;-80
2021/05/30 02:34:22;;;;;;;7.40;6.65;;;9.30;1.00;;;;;;5071988;28;20591;-77
2021/05/30 02:36:49;;;;;;;7.65;6.28;;;9.30;1.00;;;;;;5074242;28;20226;-79
2021/05/30 02:39:15;;;;;;;6.47;5.60;;;9.30;1.00;;;;;;5078521;28;20510;-79
2021/05/30 02:41:41;;;;;;;7.72;5.93;;;9.30;1.00;;;;;;5077329;28;20221;-78
2021/05/30 02:44:08;;;;;;;7.45;5.65;;;9.30;1.00;;;;;;5079745;28;20974;-79
2021/05/30 02:46:34;;;;;;;6.35;5.78;;;9.30;1.00;;;;;;5078964;27;20225;-78
2021/05/30 02:49:01;;;;;;;6.32;5.57;;;9.30;1.00;;;;;;5078527;28;20316;-78
2021/05/30 02:51:27;;;;;;;7.55;5.88;;;9.30;1.00;;;;;;5073853;28;20223;-78
2021/05/30 02:53:53;;;;;;;7.03;6.07;;;9.30;1.00;;;;;;5070745;28;20751;-79
2021/05/30 02:56:19;;;;;;;7.55;6.30;;;9.30;1.00;;;;;;5069251;28;20276;-79
2021/05/30 02:58:45;;;;;;;5.95;5.45;;;9.30;1.00;;;;;;5077373;28;20229;-79
2021/05/30 03:01:11;;;;;;;7.40;5.45;;;9.30;1.00;;;;;;5074312;28;20225;-79
2021/05/30 03:03:38;;;;;;;5.57;5.00;;;9.30;1.00;;;;;;5070579;28;20962;-79
2021/05/30 03:06:05;;;;;;;6.15;5.55;;;9.30;1.00;;;;;;5071522;28;20220;-78
2021/05/30 03:08:31;;;;;;;6.78;5.90;;;9.30;1.00;;;;;;5070843;28;20300;-79
2021/05/30 03:11:05;;;;;;;6.72;6.00;;;9.30;1.00;;;;;;5067595;28;20321;-79
2021/05/30 03:13:31;;;;;;;6.50;5.72;;;9.30;1.00;;;;;;5074034;28;20271;-80
2021/05/30 03:15:58;;;;;;;6.70;5.75;;;9.30;1.00;;;;;;5070705;28;20307;-79
2021/05/30 03:18:24;;;;;;;6.60;5.90;;;9.30;1.00;;;;;;5071848;28;20225;-78
2021/05/30 03:20:50;;;;;;;6.13;5.53;;;9.30;1.00;;;;;;5072653;28;20225;-79
2021/05/30 03:23:17;;;;;;;9.23;5.63;;;9.30;1.00;;;;;;5075379;28;20225;-78
2021/05/30 03:25:44;;;;;;;6.90;5.43;;;9.30;1.00;;;;;;5078164;28;20296;-78
2021/05/30 03:28:10;;;;;;;4.95;4.38;;;9.30;1.00;;;;;;5069316;27;20227;-80
2021/05/30 03:30:36;;;;;;;7.30;5.78;;;9.30;1.00;;;;;;5071463;28;20232;-79
2021/05/30 03:33:03;;;;;;;5.85;5.35;;;9.30;1.00;;;;;;5077013;28;20225;-78
2021/05/30 03:35:30;;;;;;;7.25;6.07;;;9.30;1.00;;;;;;5075720;28;20219;-78
2021/05/30 03:37:57;;;;;;;6.25;5.63;;;9.30;1.00;;;;;;5076763;28;20274;-78
2021/05/30 03:40:30;;;;;;;6.63;4.63;;;9.30;1.00;;;;;;5070934;28;20299;-78
2021/05/30 03:42:57;;;;;;;7.00;5.55;;;9.30;1.00;;;;;;5084282;28;20293;-79
2021/05/30 03:45:25;;;;;;;5.47;4.97;;;9.30;1.00;;;;;;5095345;28;20220;-78
2021/05/30 03:47:51;;;;;;;9.00;4.85;;;9.20;1.00;;;;;;5091806;28;20311;-79
2021/05/30 03:50:18;;;;;;;7.18;5.20;;;9.20;1.00;;;;;;5080924;28;20225;-79
2021/05/30 03:52:45;;;;;;;5.95;4.75;;;9.30;1.00;;;;;;5079737;28;20234;-78
2021/05/30 03:55:12;;;;;;;5.60;5.10;;;9.30;1.00;;;;;;5076532;28;20232;-77
2021/05/30 03:57:39;;;;;;;5.75;4.70;;;9.30;1.00;;;;;;5076252;28;20310;-77
2021/05/30 04:00:08;;;;;;;5.47;4.95;;;9.40;1.00;;;;;;5071396;28;20229;-80
2021/05/30 04:02:34;;;;;;;5.85;5.18;;;9.50;1.00;;;;;;5080975;28;20221;-78
2021/05/30 04:05:01;;;;;;;5.55;5.00;;;9.50;1.00;;;;;;5073355;27;20227;-79
2021/05/30 04:07:27;;;;;;;5.07;4.70;;;9.60;1.00;;;;;;5076774;28;20231;-78
2021/05/30 04:09:53;;;;;;;5.65;5.15;;;9.60;1.00;;;;;;5074131;27;20328;-80
2021/05/30 04:12:19;;;;;;;7.75;4.60;;;9.60;1.00;;;;;;5074588;28;20225;-78
2021/05/30 04:14:46;;;;;;;8.40;5.05;;;9.70;1.00;;;;;;5076463;28;20217;-79
2021/05/30 04:17:12;;;;;;;6.28;4.70;;;9.70;1.00;;;;;;5074090;28;20223;-79
2021/05/30 04:19:38;;;;;;;5.72;5.15;;;9.70;1.00;;;;;;5078755;28;20213;-79
2021/05/30 04:22:04;;;;;;;5.32;4.93;;;9.70;1.00;;;;;;5071705;28;20231;-78
2021/05/30 04:24:31;;;;;;;6.90;5.00;;;9.70;1.00;;;;;;5078082;28;20460;-79
2021/05/30 04:26:57;;;;;;;5.32;4.55;;;9.80;1.00;;;;;;5072288;28;20233;-77
2021/05/30 04:29:23;;;;;;;7.13;5.15;;;9.80;1.00;;;;;;5074766;28;20228;-78
2021/05/30 04:31:50;;;;;;;6.78;5.30;;;9.80;1.00;;;;;;5079752;28;20260;-78
2021/05/30 04:34:16;;;;;;;5.13;4.63;;;9.90;1.00;;;;;;5079361;28;20958;-78
2021/05/30 04:36:42;;;;;;;5.38;4.68;;;9.90;1.00;;;;;;5079183;28;20236;-78
2021/05/30 04:39:08;;;;;;;4.55;4.15;;;10.00;1.00;;;;;;5083718;28;20215;-78
2021/05/30 04:41:34;;;;;;;8.27;4.43;;;10.00;1.00;;;;;;5082001;28;20605;-79
2021/05/30 04:44:00;;;;;;;5.00;4.57;;;10.10;1.00;;;;;;5080306;28;20460;-80
2021/05/30 04:46:27;;;;;;;4.80;4.50;;;10.20;1.00;;;;;;5083118;28;20484;-79
2021/05/30 04:48:53;;;;;;;4.80;3.92;;;10.30;1.00;;;;;;5084933;28;20252;-79
2021/05/30 04:51:20;;;;;;;4.50;3.93;;;10.40;1.00;;;;;;5085209;28;20220;-79
2021/05/30 04:53:47;;;;;;;5.80;5.25;;;10.50;1.00;;;;;;5074709;28;20454;-79
2021/05/30 04:56:20;;;;;;;5.25;4.43;;;10.50;1.00;;;;;;5077688;28;20680;-78
2021/05/30 04:58:46;;;;;;;6.28;4.65;;;10.60;1.00;;;;;;5076360;28;20224;-78
2021/05/30 05:01:12;;;;;;;5.07;4.57;;;10.70;1.00;;;;;;5079967;28;20319;-79
2021/05/30 05:03:38;;;;;;;4.38;3.97;;;10.80;1.00;;;;;;5072495;28;20255;-79
2021/05/30 05:06:05;;;;;;;4.70;3.30;;;10.90;1.00;;;;;;5074797;28;20217;-79
2021/05/30 05:08:32;;;;;;;6.37;4.20;;;11.00;1.00;;;;;;5071718;28;20239;-80
2021/05/30 05:10:58;;;;;;;4.60;3.70;;;11.10;1.00;;;;;;5075182;28;20468;-79
2021/05/30 05:13:24;;;;;;;4.17;3.77;;;11.20;1.00;;;;;;5077837;28;20446;-78
2021/05/30 05:15:52;;;;;;;4.13;3.73;;;11.30;1.00;;;;;;5075118;28;20453;-79
2021/05/30 05:18:20;;;;;;;4.10;3.50;;;11.40;1.00;;;;;;5073905;28;20556;-78
2021/05/30 05:20:47;;;;;;;5.47;3.63;;;11.40;1.00;;;;;;5071288;28;20450;-80
2021/05/30 05:23:15;;;;;;;6.17;3.90;;;11.50;1.00;;;;;;5075834;28;20947;-80
2021/05/30 05:25:42;;;;;;;4.80;4.00;;;11.60;1.00;;;;;;5074291;28;21482;-79
2021/05/30 05:28:08;;;;;;;4.60;4.20;;;11.70;1.00;;;;;;5083812;28;20471;-79
2021/05/30 05:30:35;;;;;;;7.97;4.37;;;11.70;1.00;;;;;;5080045;28;20439;-79
2021/05/30 05:33:02;;;;;;;5.10;4.40;;;11.90;1.00;;;;;;5083269;28;20803;-80
2021/05/30 05:35:28;;;;;;;4.03;3.53;;;12.00;1.00;;;;;;5082134;28;20437;-79
2021/05/30 05:37:55;;;;;;;4.50;3.90;;;12.10;1.00;;;;;;5076951;28;20470;-80
2021/05/30 05:40:24;;;;;;;3.90;3.60;;;12.20;1.00;;;;;;5074953;28;20481;-79
2021/05/30 05:42:50;;;;;;;3.93;3.50;;;12.20;1.00;;;;;;5077347;28;20454;-80
2021/05/30 05:45:17;;;;;;;4.00;3.60;;;12.30;1.00;;;;;;5075849;28;20938;-80
2021/05/30 05:47:43;;;;;;;4.83;3.47;;;12.40;1.00;;;;;;5076210;28;20451;-80
2021/05/30 05:50:11;;;;;;;4.80;3.87;;;12.50;1.00;;;;;;5069911;28;20986;-80
2021/05/30 05:52:37;;;;;;;3.77;3.43;;;12.60;1.00;;;;;;5080388;28;20431;-80
2021/05/30 05:55:04;;;;;;;3.77;3.47;;;12.70;1.00;;;;;;5078173;28;20446;-80
2021/05/30 05:57:31;;;;;;;5.83;3.80;;;12.80;1.00;;;;;;5084053;28;20467;-79
2021/05/30 05:59:58;;;;;;;4.20;3.83;;;13.00;1.00;;;;;;5089659;28;20450;-79
2021/05/30 06:02:25;;;;;;;3.80;3.40;;;13.10;1.00;;;;;;5083583;28;20530;-79
2021/05/30 06:04:51;;;;;;;3.83;3.30;;;13.20;1.00;;;;;;5082994;28;20949;-79
2021/05/30 06:07:17;;;;;;;5.97;3.80;;;13.30;1.00;;;;;;5078333;28;20470;-77
2021/05/30 06:09:44;;;;;;;4.20;3.40;;;13.50;1.00;;;;;;5080318;28;20457;-79
2021/05/30 06:12:10;;;;;;;3.60;3.30;;;13.60;1.00;;;;;;5072068;28;20883;-79
2021/05/30 06:14:37;;;;;;;7.13;3.90;;;13.70;1.00;;;;;;5077658;28;20448;-77
2021/05/30 06:17:04;;;;;;;5.63;4.27;;;13.80;1.00;;;;;;5064624;28;20486;-77
2021/05/30 06:19:31;;;;;;;4.93;3.60;;;13.80;1.00;;;;;;5077024;28;20459;-80
2021/05/30 06:21:57;;;;;;;4.53;3.50;;;13.90;1.00;;;;;;5073382;28;20495;-78
2021/05/30 06:24:24;;;;;;;3.90;3.60;;;13.90;1.00;;;;;;5073345;28;20455;-79
2021/05/30 06:26:53;;;;;;;9.93;3.20;;;14.00;1.00;;;;;;5087251;28;20414;-77
2021/05/30 06:29:19;;;;;;;3.37;3.07;;;13.90;1.00;;;;;;5077344;28;20419;-78
2021/05/30 06:31:46;;;;;;;3.07;2.77;;;14.00;1.00;;;;;;5076659;28;20787;-78
2021/05/30 06:34:15;;;;;;;6.17;3.40;;;14.10;1.00;;;;;;5075854;28;20479;-78
2021/05/30 06:36:41;;;;;;;3.60;3.27;;;14.10;1.00;;;;;;5078165;28;20442;-79
2021/05/30 06:39:08;;;;;;;3.80;3.30;;;14.10;1.00;;;;;;5079144;28;20459;-79
2021/05/30 06:41:34;;;;;;;3.40;3.10;;;14.20;1.00;;;;;;5078036;28;20464;-77
2021/05/30 06:44:00;;;;;;;3.87;2.97;;;14.30;1.00;;;;;;5077133;28;20424;-78
2021/05/30 06:46:27;;;;;;;3.33;3.03;;;14.40;1.00;;;;;;5084288;28;20434;-79
2021/05/30 06:48:54;;;;;;;5.30;3.43;;;14.50;1.00;;;;;;5078615;28;20422;-81
2021/05/30 06:51:22;;;;;;;4.87;3.60;;;14.60;1.00;;;;;;5074302;28;20819;-79
2021/05/30 06:53:50;;;;;;;4.40;2.90;;;14.70;1.00;;;;;;5072953;28;20447;-78
2021/05/30 06:56:17;;;;;;;8.20;6.97;;;14.70;1.00;;;;;;5072946;28;20458;-79
2021/05/30 06:58:44;;;;;;;4.47;3.93;;;14.80;1.00;;;;;;5076058;28;20501;-78
2021/05/30 07:01:12;;;;;;;3.40;3.10;;;14.80;1.00;;;;;;5070109;28;20447;-78
2021/05/30 07:03:38;;;;;;;4.70;3.47;;;14.80;1.00;;;;;;5069348;28;20431;-78
2021/05/30 07:06:06;;;;;;;3.00;2.47;;;15.00;1.00;;;;;;5071640;28;20478;-79
2021/05/30 07:08:32;;;;;;;3.80;3.20;;;15.10;1.00;;;;;;5074272;28;20583;-79
2021/05/30 07:10:58;;;;;;;5.30;2.77;;;15.10;1.00;;;;;;5071052;28;20589;-79
2021/05/30 07:13:25;;;;;;;4.73;2.90;;;15.10;1.00;;;;;;5070529;28;20467;-80
2021/05/30 07:15:52;;;;;;;3.70;2.50;;;15.20;1.00;;;;;;5069896;28;21379;-78
2021/05/30 07:18:18;;;;;;;3.37;3.07;;;15.30;1.00;;;;;;5076725;28;20459;-80
2021/05/30 07:20:45;;;;;;;4.00;3.70;;;15.40;1.00;;;;;;5070787;28;20495;-79
2021/05/30 07:23:12;;;;;;;4.20;3.10;;;15.40;1.00;;;;;;5071777;28;20505;-79
2021/05/30 07:25:39;;;;;;;5.87;2.50;;;15.60;1.00;;;;;;5074402;28;20545;-79
2021/05/30 07:28:06;;;;;;;4.20;3.70;;;15.60;1.00;;;;;;5070113;28;20457;-79
2021/05/30 07:30:32;;;;;;;3.70;3.30;;;15.70;1.00;;;;;;5079840;27;21009;-80
2021/05/30 07:32:58;;;;;;;6.70;3.67;;;15.80;1.00;;;;;;5073546;28;20463;-79
2021/05/30 07:35:24;;;;;;;4.43;3.17;;;15.90;1.00;;;;;;5081539;28;20482;-80
2021/05/30 07:37:51;;;;;;;5.20;2.90;;;16.00;1.00;;;;;;5075180;28;20405;-79
2021/05/30 07:40:18;;;;;;;3.33;3.03;;;16.10;1.00;;;;;;5076265;28;20451;-79
2021/05/30 07:42:46;;;;;;;4.10;3.43;;;16.30;1.00;;;;;;5081916;28;20450;-81
2021/05/30 07:45:13;;;;;;;3.87;3.07;;;16.30;1.00;;;;;;5078195;28;20542;-80
2021/05/30 07:47:39;;;;;;;3.00;2.53;;;16.50;1.00;;;;;;5077245;28;20514;-80
2021/05/30 07:50:07;;;;;;;3.47;3.17;;;16.40;1.00;;;;;;5078671;28;20457;-84
2021/05/30 07:52:34;;;;;;;2.53;2.30;;;16.50;1.00;;;;;;5079360;28;21180;-83
2021/05/30 07:55:00;;;;;;;3.33;3.10;;;16.50;1.00;;;;;;5079981;28;21735;-83
2021/05/30 07:57:27;;;;;;;4.53;2.87;;;16.60;1.00;;;;;;5078609;28;20869;-83
2021/05/30 07:59:53;;;;;;;3.27;2.80;;;16.80;1.00;;;;;;5078732;28;21142;-83
2021/05/30 08:02:19;;;;;;;4.10;2.60;;;16.80;1.00;;;;;;5077855;28;20435;-83
2021/05/30 08:04:46;;;;;;;3.30;3.00;;;16.90;1.00;;;;;;5087653;28;20472;-83
2021/05/30 08:07:12;;;;;;;9.33;4.40;;;17.00;1.00;;;;;;5092782;27;20407;-81
2021/05/30 08:09:39;;;;;;;4.33;2.80;;;17.20;1.00;;;;;;5099100;28;20484;-83
2021/05/30 08:12:06;;;;;;;4.27;2.70;;;17.30;1.00;;;;;;5078723;28;20544;-83
2021/05/30 08:14:33;;;;;;;3.60;2.53;;;17.50;1.00;;;;;;5082949;28;20491;-82
2021/05/30 08:16:59;;;;;;;3.53;2.60;;;17.60;1.00;;;;;;5083381;28;20463;-77
2021/05/30 08:19:25;;;;;;;3.40;2.00;;;17.70;1.00;;;;;;5072846;28;20464;-79
2021/05/30 08:21:51;;;;;;;4.83;2.63;;;17.80;1.00;;;;;;5072741;28;20445;-78
2021/05/30 08:24:18;;;;;;;6.17;3.10;;;17.80;1.00;;;;;;5069079;28;21678;-79
2021/05/30 08:26:44;;;;;;;2.70;2.50;;;17.70;1.00;;;;;;5066511;28;20462;-78
2021/05/30 08:29:10;;;;;;;3.40;2.80;;;17.80;1.00;;;;;;5068206;27;20460;-78
2021/05/30 08:31:37;;;;;;;7.83;6.70;;;17.90;1.00;;;;;;5070708;28;20793;-79
2021/05/30 08:34:03;;;;;;;6.33;3.03;;;18.00;1.00;;;;;;5072670;28;20444;-80
2021/05/30 08:36:29;;;;;;;3.53;2.70;;;18.10;1.00;;;;;;5071359;28;21435;-79
2021/05/30 08:38:56;;;;;;;2.67;2.43;;;18.30;1.00;;;;;;5070695;28;21254;-80
2021/05/30 08:41:22;;;;;;;2.97;2.60;;;18.40;1.00;;;;;;5074341;28;20478;-80
2021/05/30 08:43:48;;;;;;;2.10;1.90;;;18.30;1.00;;;;;;5070358;28;20552;-83
2021/05/30 08:46:14;;;;;;;2.87;2.57;;;18.40;1.00;;;;;;5070160;28;20532;-79
2021/05/30 08:48:41;;;;;;;3.83;2.30;;;18.40;1.00;;;;;;5072760;28;20493;-80
2021/05/30 08:51:12;;;;;;;3.03;2.60;;;18.60;1.00;;;;;;5076992;28;20462;-81
2021/05/30 08:53:41;;;;;;;3.43;3.00;;;18.60;1.00;;;;;;5086684;28;20905;-80
2021/05/30 08:56:08;;;;;;;3.33;2.60;;;18.70;1.00;;;;;;5087077;28;21043;-80
2021/05/30 08:58:36;;;;;;;2.47;2.20;;;18.80;1.00;;;;;;5081639;28;20544;-79
2021/05/30 09:01:10;;;;;;;2.20;1.87;;;19.00;1.00;;;;;;5089212;28;20452;-83
2021/05/30 09:03:55;;;;;;;2.57;1.93;;;19.00;1.00;;;;;;5087421;28;20484;-82
2021/05/30 09:06:22;;;;;;;3.00;2.33;;;19.10;1.00;;;;;;5073992;28;20453;-80
2021/05/30 09:08:53;;;;;;;4.30;2.27;;;19.20;1.00;;;;;;5072912;28;20464;-83
2021/05/30 09:11:45;;;;;;;3.23;2.90;;;19.30;1.00;;;;;;5096315;28;20460;-82
2021/05/30 09:14:15;;;;;;;3.53;2.50;;;19.30;1.00;;;;;;5074163;28;20447;-82
2021/05/30 09:16:51;;;;;;;4.13;2.90;;;19.30;1.00;;;;;;5079836;28;20470;-83
2021/05/30 09:19:46;;;;;;;2.70;2.40;;;19.30;1.00;;;;;;5074106;28;20508;-82
2021/05/30 09:22:40;;;;;;;4.03;2.67;;;19.20;1.00;;;;;;5033365;28;20861;-83
2021/05/30 09:25:18;;;;;;;3.53;2.13;;;19.10;1.00;;;;;;5074909;28;20465;-85
2021/05/30 09:27:50;;;;;;;3.13;2.30;;;19.20;1.00;;;;;;5080348;28;20466;-85
2021/05/30 09:30:22;;;;;;;2.03;1.90;;;19.50;1.00;;;;;;5079211;28;20553;-83
2021/05/30 09:33:06;;;;;;;5.20;3.50;;;19.90;1.00;;;;;;5079793;28;20431;-85
2021/05/30 09:35:54;;;;;;;4.43;2.83;;;20.60;1.00;;;;;;5078323;28;21306;-82
2021/05/30 09:38:23;;;;;;;3.23;2.43;;;21.60;1.00;;;;;;5078445;28;20435;-82
2021/05/30 09:40:52;;;;;;;3.17;2.30;;;22.60;1.00;;;;;;5077900;28;20676;-84
2021/05/30 09:43:20;;;;;;;5.67;3.93;;;23.50;1.00;;;;;;5084566;28;20469;-85
2021/05/30 09:45:59;;;;;;;12.33;3.40;;;24.20;1.00;;;;;;5089556;28;20489;-84
2021/05/30 09:48:26;;;;;;;4.30;3.03;;;24.60;1.00;;;;;;5080218;28;20478;-82
2021/05/30 09:51:06;;;;;;;3.00;2.20;;;24.60;1.00;;;;;;5076217;27;20429;-82
2021/05/30 09:53:34;;;;;;;3.10;2.60;;;25.00;1.00;;;;;;5080196;28;20442;-82
2021/05/30 09:56:00;;;;;;;2.70;2.50;;;25.20;1.00;;;;;;5071135;28;21308;-79
2021/05/30 09:58:26;;;;;;;3.77;2.70;;;25.00;1.00;;;;;;5079878;28;20461;-82
2021/05/30 10:01:01;;;;;;;3.50;2.70;;;24.90;1.00;;;;;;5077054;28;20505;-84
2021/05/30 10:03:30;;;;;;;5.03;2.50;;;25.70;1.00;;;;;;5081642;28;21605;-82
2021/05/30 10:06:00;;;;;;;3.33;2.63;;;26.30;1.00;;;;;;5078142;28;20451;-84
2021/05/30 10:08:27;;;;;;;2.77;2.17;;;26.70;1.00;;;;;;5082987;28;20614;-82
2021/05/30 10:10:54;;;;;;;3.70;2.17;;;26.70;1.00;;;;;;5081196;28;20511;-83
2021/05/30 10:13:20;;;;;;;2.77;2.30;;;26.80;1.00;;;;;;5080550;28;20450;-82
2021/05/30 10:15:47;;;;;;;2.97;2.40;;;26.70;1.00;;;;;;5082496;28;20455;-82
2021/05/30 10:18:19;;;;;;;2.43;2.13;;;26.40;1.00;;;;;;5084414;28;20398;-82
2021/05/30 10:20:47;;;;;;;2.80;2.17;;;26.30;1.00;;;;;;5098156;28;20425;-84
2021/05/30 10:23:17;;;;;;;3.47;2.70;;;26.70;1.00;;;;;;5093481;28;20455;-82
2021/05/30 10:25:43;;;;;;;2.57;2.37;;;27.50;1.00;;;;;;5081240;28;20469;-82
2021/05/30 10:28:14;;;;;;;3.13;2.30;;;28.30;1.00;;;;;;5083819;28;20520;-82
2021/05/30 10:30:44;;;;;;;2.43;2.23;;;29.20;1.00;;;;;;5083817;28;20477;-85
2021/05/30 10:33:14;;;;;;;2.93;2.63;;;29.50;1.00;;;;;;5077847;28;20411;-81
2021/05/30 10:35:41;;;;;;;3.87;3.47;;;29.90;1.00;;;;;;5077609;28;20432;-81
2021/05/30 10:38:08;;;;;;;3.17;2.30;;;30.00;1.00;;;;;;5083849;28;20460;-82
2021/05/30 10:40:41;;;;;;;3.20;2.30;;;30.70;1.00;;;;;;5083878;28;21135;-82
2021/05/30 10:43:19;;;;;;;6.40;3.10;;;31.20;1.00;;;;;;5091730;28;20434;-85
2021/05/30 10:46:03;;;;;;;5.17;2.70;;;30.80;1.00;;;;;;5078482;28;20484;-82
2021/05/30 10:48:30;;;;;;;3.00;2.40;;;31.50;1.00;;;;;;5077235;28;20681;-84
2021/05/30 10:51:09;;;;;;;3.87;2.30;;;31.50;1.00;;;;;;5084429;28;20449;-83
2021/05/30 10:53:38;;;;;;;3.77;2.90;;;31.20;1.00;;;;;;5085485;28;21405;-84
2021/05/30 10:56:23;;;;;;;4.40;2.80;;;31.00;1.00;;;;;;5078342;28;20565;-83
2021/05/30 10:59:20;;;;;;;2.57;2.37;;;30.70;1.00;;;;;;5076029;28;20439;-82
2021/05/30 11:01:48;;;;;;;3.67;2.73;;;30.90;1.00;;;;;;5075024;28;20566;-82
2021/05/30 11:04:34;;;;;;;3.20;2.90;;;30.70;1.00;;;;;;5077202;28;20420;-81
2021/05/30 11:07:05;;;;;;;5.60;3.00;;;30.50;1.00;;;;;;5073581;28;20566;-83
2021/05/30 11:10:02;;;;;;;4.30;2.70;;;31.00;1.00;;;;;;5084303;28;20473;-83
2021/05/30 11:12:31;;;;;;;5.10;2.83;;;31.30;1.00;;;;;;5069010;28;21336;-84
2021/05/30 11:15:20;;;;;;;3.33;3.03;;;31.30;1.00;;;;;;5076959;28;20762;-85
2021/05/30 11:17:49;;;;;;;3.67;3.10;;;31.80;1.00;;;;;;5078099;28;22686;-85
2021/05/30 11:20:18;;;;;;;4.53;3.90;;;32.50;1.00;;;;;;5081703;28;20499;-82
2021/05/30 11:22:46;;;;;;;3.73;3.30;;;32.70;1.00;;;;;;5094331;28;20452;-82
2021/05/30 11:25:14;;;;;;;3.63;2.17;;;31.70;1.00;;;;;;5078899;28;20527;-81
2021/05/30 11:27:56;;;;;;;2.80;2.30;;;31.90;1.00;;;;;;5076470;28;20454;-82
2021/05/30 11:30:55;;;;;;;4.03;2.90;;;32.30;1.00;;;;;;5106162;27;20424;-88
2021/05/30 11:33:40;;;;;;;3.47;2.93;;;32.70;1.00;;;;;;5099191;28;20455;-87
2021/05/30 11:36:13;;;;;;;3.47;2.87;;;33.50;1.00;;;;;;5088278;28;20435;-88
2021/05/30 11:38:45;;;;;;;2.70;2.50;;;33.40;1.00;;;;;;5091621;28;20442;-88
2021/05/30 11:41:25;;;;;;;3.00;2.33;;;33.30;1.00;;;;;;5093824;28;20447;-87
2021/05/30 11:44:05;;;;;;;2.90;2.60;;;33.20;1.00;;;;;;5090357;28;20508;-87
2021/05/30 11:46:37;;;;;;;3.20;2.73;;;32.90;1.00;;;;;;5085299;28;20410;-87
2021/05/30 11:49:10;;;;;;;2.40;2.20;;;33.10;1.00;;;;;;5096214;28;20462;-87
2021/05/30 11:51:51;;;;;;;2.90;2.60;;;33.50;1.00;;;;;;5086692;28;20558;-87
2021/05/30 11:54:19;;;;;;;2.93;2.40;;;33.10;1.00;;;;;;5108464;27;20446;-88
2021/05/30 11:56:50;;;;;;;2.53;2.33;;;33.80;1.00;;;;;;5113793;27;20459;-86
2021/05/30 11:59:39;;;;;;;4.53;2.70;;;33.50;1.00;;;;;;5097204;28;20819;-86
2021/05/30 12:02:06;;;;;;;6.00;3.03;;;33.90;1.00;;;;;;5087654;28;20451;-88
2021/05/30 12:04:36;;;;;;;2.70;2.13;;;33.80;1.00;;;;;;5083358;28;20451;-89
2021/05/30 12:07:04;;;;;;;4.50;2.40;;;33.20;1.00;;;;;;5083692;28;20407;-87
2021/05/30 12:09:59;;;;;;;3.67;2.70;;;32.50;1.00;;;;;;5082257;28;20448;-85
2021/05/30 12:12:28;;;;;;;4.40;3.00;;;31.70;1.00;;;;;;5049153;27;20450;-89
2021/05/30 12:15:00;;;;;;;2.77;2.23;;;32.40;1.00;;;;;;5077757;28;20421;-88
2021/05/30 12:17:26;;;;;;;3.53;2.57;;;33.60;1.00;;;;;;5088744;28;20501;-88
2021/05/30 12:19:54;;;;;;;7.40;3.07;;;34.50;1.00;;;;;;5091753;28;21017;-86
2021/05/30 12:22:22;;;;;;;3.23;2.80;;;34.90;1.00;;;;;;5084049;28;20450;-86
2021/05/30 12:24:48;;;;;;;3.80;2.40;;;35.40;1.00;;;;;;5063204;28;20440;-86
2021/05/30 12:27:15;;;;;;;3.50;1.80;;;35.10;1.00;;;;;;5082169;28;20443;-86
2021/05/30 12:29:46;;;;;;;3.00;2.50;;;34.40;1.00;;;;;;5085314;28;20537;-87
2021/05/30 12:32:13;;;;;;;3.00;2.53;;;34.60;1.00;;;;;;5081804;28;20467;-87
2021/05/30 12:34:39;;;;;;;9.13;8.30;;;33.70;1.00;;;;;;5086339;28;20463;-86
2021/05/30 12:37:06;;;;;;;3.73;2.80;;;33.40;1.00;;;;;;5099815;27;20567;-89
2021/05/30 12:39:32;;;;;;;3.07;2.83;;;34.10;1.00;;;;;;5079069;28;20459;-88
2021/05/30 12:42:03;;;;;;;7.97;2.97;;;33.40;1.00;;;;;;5079921;28;20775;-88
2021/05/30 12:44:38;;;;;;;3.80;2.50;;;31.60;1.00;;;;;;5082724;28;20482;-87
2021/05/30 12:47:08;;;;;;;3.93;3.17;;;31.00;1.00;;;;;;5078681;28;20467;-86
2021/05/30 12:49:36;;;;;;;3.37;2.30;;;29.80;1.00;;;;;;5076020;28;20466;-87
2021/05/30 12:52:05;;;;;;;3.43;2.67;;;29.70;1.00;;;;;;5088111;28;20457;-88
2021/05/30 12:54:33;;;;;;;2.50;2.30;;;29.30;1.00;;;;;;5078124;28;21361;-87
2021/05/30 12:57:00;;;;;;;5.37;3.80;;;30.20;1.00;;;;;;5088770;28;20446;-87
2021/05/30 12:59:28;;;;;;;3.30;2.40;;;31.50;1.00;;;;;;5092111;28;20474;-87
2021/05/30 13:01:56;;;;;;;3.07;2.27;;;32.60;1.00;;;;;;5094501;28;20410;-88
2021/05/30 13:04:29;;;;;;;4.13;2.43;;;32.90;1.00;;;;;;5092864;28;20466;-89
2021/05/30 13:07:07;;;;;;;2.70;2.50;;;33.20;1.00;;;;;;5088789;28;20461;-83
2021/05/30 13:09:48;;;;;;;3.17;2.87;;;33.00;1.00;;;;;;5081713;28;20455;-85